sensor_id;sensor_type;location;lat;lon;timestamp;temperature;humidity
8736;DHT22;4404;49.308;12.178;2023-02-27T08:18:22;1.40;99.90
8736;DHT22;4404;49.308;12.178;2023-02-27T08:24:25;2.50;99.90
8736;DHT22;4404;49.308;12.178;2023-02-27T08:30:27;2.50;99.90
8736;DHT22;4404;49.308;12.178;2023-02-27T08:36:31;2.60;99.90
8736;DHT22;4404;49.308;12.178;2023-02-27T08:42:33;2.60;99.90
8736;DHT22;4404;49.308;12.178;2023-02-27T08:48:36;2.70;99.90
8736;DHT22;4404;49.308;12.178;2023-02-27T08:54:39;3.00;99.90
8736;DHT22;4404;49.308;12.178;2023-02-27T09:00:42;3.10;99.90
8736;DHT22;4404;49.308;12.178;2023-02-27T09:06:44;3.30;99.90
8736;DHT22;4404;49.308;12.178;2023-02-27T09:12:48;3.50;99.90
8736;DHT22;4404;49.308;12.178;2023-02-27T09:18:50;3.70;99.90
8736;DHT22;4404;49.308;12.178;2023-02-27T09:24:53;3.90;99.40
8736;DHT22;4404;49.308;12.178;2023-02-27T09:30:59;4.10;99.50
8736;DHT22;4404;49.308;12.178;2023-02-27T09:37:01;4.30;98.60
8736;DHT22;4404;49.308;12.178;2023-02-27T09:43:10;4.40;96.60
8736;DHT22;4404;49.308;12.178;2023-02-27T09:49:19;4.60;96.50
8736;DHT22;4404;49.308;12.178;2023-02-27T09:55:24;4.80;95.90
8736;DHT22;4404;49.308;12.178;2023-02-27T10:01:39;5.10;95.60
8736;DHT22;4404;49.308;12.178;2023-02-27T10:07:48;5.10;92.80
8736;DHT22;4404;49.308;12.178;2023-02-27T10:13:59;4.90;91.90
8736;DHT22;4404;49.308;12.178;2023-02-27T10:20:13;4.70;91.10
8736;DHT22;4404;49.308;12.178;2023-02-27T10:26:24;4.60;91.30
8736;DHT22;4404;49.308;12.178;2023-02-27T10:32:31;4.40;90.40
8736;DHT22;4404;49.308;12.178;2023-02-27T10:38:37;4.50;90.90
8736;DHT22;4404;49.308;12.178;2023-02-27T10:44:42;4.50;90.80
8736;DHT22;4404;49.308;12.178;2023-02-27T10:50:49;4.50;90.20
8736;DHT22;4404;49.308;12.178;2023-02-27T10:56:53;4.50;89.20
8736;DHT22;4404;49.308;12.178;2023-02-27T11:02:58;4.40;90.10
8736;DHT22;4404;49.308;12.178;2023-02-27T11:09:12;4.50;90.10
8736;DHT22;4404;49.308;12.178;2023-02-27T11:15:23;4.70;89.40
8736;DHT22;4404;49.308;12.178;2023-02-27T11:21:28;4.70;87.20
8736;DHT22;4404;49.308;12.178;2023-02-27T11:27:31;4.60;87.30
8736;DHT22;4404;49.308;12.178;2023-02-27T11:33:35;4.50;87.80
8736;DHT22;4404;49.308;12.178;2023-02-27T11:39:49;4.20;86.60
8736;DHT22;4404;49.308;12.178;2023-02-27T11:45:55;4.10;87.80
8736;DHT22;4404;49.308;12.178;2023-02-27T11:52:05;4.00;89.40
8736;DHT22;4404;49.308;12.178;2023-02-27T11:58:15;4.00;88.30
8736;DHT22;4404;49.308;12.178;2023-02-27T12:04:23;4.00;88.30
8736;DHT22;4404;49.308;12.178;2023-02-27T12:10:31;4.00;90.00
8736;DHT22;4404;49.308;12.178;2023-02-27T12:16:40;4.00;89.70
8736;DHT22;4404;49.308;12.178;2023-02-27T12:22:47;4.00;89.10
8736;DHT22;4404;49.308;12.178;2023-02-27T12:28:55;3.90;88.80
8736;DHT22;4404;49.308;12.178;2023-02-27T12:35:10;4.00;89.10
8736;DHT22;4404;49.308;12.178;2023-02-27T12:41:40;4.10;89.30
8736;DHT22;4404;49.308;12.178;2023-02-27T12:47:53;4.00;86.90
8736;DHT22;4404;49.308;12.178;2023-02-27T12:54:11;3.90;88.20
8736;DHT22;4404;49.308;12.178;2023-02-27T13:00:21;3.80;89.50
8736;DHT22;4404;49.308;12.178;2023-02-27T13:06:30;3.90;90.40
8736;DHT22;4404;49.308;12.178;2023-02-27T13:12:40;4.20;90.50
8736;DHT22;4404;49.308;12.178;2023-02-27T13:18:49;4.20;86.70
8736;DHT22;4404;49.308;12.178;2023-02-27T13:24:57;4.10;87.60
8736;DHT22;4404;49.308;12.178;2023-02-27T13:31:05;4.00;86.50
8736;DHT22;4404;49.308;12.178;2023-02-27T13:37:10;3.90;86.70
8736;DHT22;4404;49.308;12.178;2023-02-27T13:43:31;3.90;87.20
8736;DHT22;4404;49.308;12.178;2023-02-27T13:49:42;4.00;88.00
8736;DHT22;4404;49.308;12.178;2023-02-27T13:55:45;4.00;87.50
8736;DHT22;4404;49.308;12.178;2023-02-27T14:01:51;4.10;87.60
8736;DHT22;4404;49.308;12.178;2023-02-27T14:08:02;4.10;88.30
8736;DHT22;4404;49.308;12.178;2023-02-27T14:14:08;4.20;86.90
8736;DHT22;4404;49.308;12.178;2023-02-27T14:20:12;4.30;87.30
8736;DHT22;4404;49.308;12.178;2023-02-27T14:26:18;4.30;88.10
8736;DHT22;4404;49.308;12.178;2023-02-27T14:32:23;4.30;87.50
8736;DHT22;4404;49.308;12.178;2023-02-27T14:38:28;4.20;85.90
8736;DHT22;4404;49.308;12.178;2023-02-27T14:44:37;4.00;86.80
8736;DHT22;4404;49.308;12.178;2023-02-27T14:50:41;4.00;86.70
8736;DHT22;4404;49.308;12.178;2023-02-27T14:56:52;3.90;87.70
8736;DHT22;4404;49.308;12.178;2023-02-27T15:02:57;3.90;87.30
8736;DHT22;4404;49.308;12.178;2023-02-27T15:09:00;3.90;87.70
8736;DHT22;4404;49.308;12.178;2023-02-27T15:15:04;3.80;88.40
8736;DHT22;4404;49.308;12.178;2023-02-27T15:21:13;3.70;89.50
8736;DHT22;4404;49.308;12.178;2023-02-27T15:27:19;3.80;88.90
8736;DHT22;4404;49.308;12.178;2023-02-27T15:33:27;3.80;89.40
8736;DHT22;4404;49.308;12.178;2023-02-27T15:39:32;3.70;86.40
8736;DHT22;4404;49.308;12.178;2023-02-27T15:45:36;3.70;87.10
8736;DHT22;4404;49.308;12.178;2023-02-27T15:51:39;3.70;87.80
8736;DHT22;4404;49.308;12.178;2023-02-27T15:57:43;3.70;87.80
8736;DHT22;4404;49.308;12.178;2023-02-27T16:03:48;3.70;86.60
8736;DHT22;4404;49.308;12.178;2023-02-27T16:09:53;3.70;87.80
8736;DHT22;4404;49.308;12.178;2023-02-27T16:16:00;3.70;88.10
8736;DHT22;4404;49.308;12.178;2023-02-27T16:22:04;3.70;89.20
8736;DHT22;4404;49.308;12.178;2023-02-27T16:28:12;3.60;89.00
8736;DHT22;4404;49.308;12.178;2023-02-27T16:34:23;3.60;90.10
8736;DHT22;4404;49.308;12.178;2023-02-27T16:40:29;3.50;88.70
8736;DHT22;4404;49.308;12.178;2023-02-27T16:46:31;3.50;89.00
8736;DHT22;4404;49.308;12.178;2023-02-27T16:52:35;3.40;88.70
8736;DHT22;4404;49.308;12.178;2023-02-27T16:58:37;3.30;89.30
